createdAt,value
2018-04-24T00:00:54.699Z,0.00
2018-04-24T00:01:54.720Z,0.00
2018-04-24T00:02:54.722Z,0.00
2018-04-24T00:03:54.732Z,0.00
2018-04-24T00:04:54.743Z,0.00
2018-04-24T00:05:54.753Z,0.00
2018-04-24T00:06:54.764Z,0.00
2018-04-24T00:07:54.786Z,0.00
2018-04-24T00:08:54.785Z,0.00
2018-04-24T00:09:54.809Z,0.00
2018-04-24T00:10:54.812Z,0.00
2018-04-24T00:11:54.825Z,0.00
2018-04-24T00:12:54.837Z,0.00
2018-04-24T00:13:54.841Z,0.00
2018-04-24T00:14:54.853Z,0.00
2018-04-24T00:15:54.866Z,0.00
2018-04-24T00:16:54.874Z,0.00
2018-04-24T00:17:54.897Z,0.00
2018-04-24T00:18:54.900Z,0.00
2018-04-24T00:19:54.910Z,0.00
2018-04-24T00:20:54.923Z,0.00
2018-04-24T00:21:54.931Z,0.00
2018-04-24T00:22:54.941Z,0.00
2018-04-24T00:23:54.957Z,0.00
2018-04-24T00:24:54.963Z,0.00
2018-04-24T00:25:54.985Z,0.00
2018-04-24T00:26:54.983Z,0.00
2018-04-24T00:27:55.000Z,0.00
2018-04-24T00:28:55.030Z,0.00
2018-04-24T00:29:55.022Z,0.00
2018-04-24T00:30:55.032Z,0.00
2018-04-24T00:31:55.047Z,0.00
2018-04-24T00:32:55.050Z,0.00
2018-04-24T00:33:55.064Z,0.00
2018-04-24T00:34:55.074Z,0.00
2018-04-24T00:35:55.089Z,0.00
2018-04-24T00:36:55.097Z,0.00
2018-04-24T00:37:55.106Z,0.00
2018-04-24T00:38:55.125Z,0.00
2018-04-24T00:39:55.129Z,0.00
2018-04-24T00:40:55.145Z,0.00
2018-04-24T00:41:55.149Z,0.00
2018-04-24T00:42:55.163Z,0.00
2018-04-24T00:43:55.175Z,0.00
2018-04-24T00:44:55.186Z,0.00
2018-04-24T00:45:55.217Z,0.00
2018-04-24T00:46:55.207Z,0.00
2018-04-24T00:47:55.218Z,0.00
2018-04-24T00:48:55.233Z,0.00
2018-04-24T00:49:55.238Z,0.00
2018-04-24T00:50:55.257Z,0.00
2018-04-24T00:51:55.265Z,0.00
2018-04-24T00:52:55.272Z,0.00
2018-04-24T00:53:55.286Z,0.00
2018-04-24T00:54:55.300Z,0.00
2018-04-24T00:55:55.304Z,0.00
2018-04-24T00:56:55.323Z,0.00
2018-04-24T00:57:55.334Z,0.00
2018-04-24T00:58:55.339Z,0.00
2018-04-24T00:59:55.356Z,0.00
2018-04-24T01:00:55.361Z,0.00
2018-04-24T01:01:55.372Z,0.00
2018-04-24T01:02:55.392Z,0.00
2018-04-24T01:03:55.405Z,0.00
2018-04-24T01:04:55.404Z,0.00
2018-04-24T01:05:55.418Z,0.00
2018-04-24T01:06:55.425Z,0.00
2018-04-24T01:07:55.438Z,0.00
2018-04-24T01:08:55.447Z,0.00
2018-04-24T01:09:55.468Z,0.00
2018-04-24T01:10:55.471Z,0.00
2018-04-24T01:11:55.484Z,0.00
2018-04-24T01:12:55.497Z,0.00
2018-04-24T01:13:55.507Z,0.00
2018-04-24T01:14:55.518Z,0.00
2018-04-24T01:15:55.529Z,0.00
2018-04-24T01:16:55.549Z,0.00
2018-04-24T01:17:55.547Z,0.00
2018-04-24T01:18:55.563Z,0.00
2018-04-24T01:19:55.571Z,0.00
2018-04-24T01:20:55.583Z,0.00
2018-04-24T01:21:55.593Z,0.00
2018-04-24T01:22:55.621Z,0.00
2018-04-24T01:23:55.617Z,0.00
2018-04-24T01:24:55.626Z,0.00
2018-04-24T01:25:55.636Z,0.00
2018-04-24T01:26:55.652Z,0.00
2018-04-24T01:27:55.658Z,0.00
2018-04-24T01:28:55.671Z,0.00
2018-04-24T01:29:55.701Z,0.00
2018-04-24T01:30:55.695Z,0.00
2018-04-24T01:31:55.721Z,0.00
2018-04-24T01:32:55.718Z,0.00
2018-04-24T01:33:55.730Z,0.00
2018-04-24T01:34:55.739Z,0.00
2018-04-24T01:35:55.759Z,0.00
2018-04-24T01:36:55.759Z,0.00
2018-04-24T01:37:55.776Z,0.00
2018-04-24T01:38:55.782Z,0.00
2018-04-24T01:39:55.803Z,0.00
2018-04-24T01:40:55.807Z,0.00
2018-04-24T01:41:55.818Z,0.00
2018-04-24T01:42:55.846Z,0.00
2018-04-24T01:43:55.847Z,0.00
2018-04-24T01:44:55.849Z,0.00
2018-04-24T01:45:55.943Z,0.00
2018-04-24T01:46:55.872Z,0.00
2018-04-24T01:47:55.882Z,0.00
2018-04-24T01:48:55.899Z,0.00
2018-04-24T01:49:55.907Z,0.00
2018-04-24T01:50:55.916Z,0.00
2018-04-24T01:51:55.927Z,0.00
2018-04-24T01:52:55.949Z,0.00
2018-04-24T01:53:55.950Z,0.00
2018-04-24T01:54:55.994Z,0.00
2018-04-24T01:55:55.971Z,0.00
2018-04-24T01:56:55.983Z,0.00
2018-04-24T01:57:55.997Z,0.00
2018-04-24T01:58:56.007Z,0.00
2018-04-24T01:59:56.020Z,0.00
2018-04-24T02:00:56.035Z,0.00
2018-04-24T02:01:56.041Z,0.00
2018-04-24T02:02:56.050Z,0.00
2018-04-24T02:03:56.065Z,0.00
2018-04-24T02:04:56.124Z,0.00
2018-04-24T02:05:56.081Z,0.00
2018-04-24T02:06:56.105Z,0.00
2018-04-24T02:07:56.109Z,0.00
2018-04-24T02:08:56.148Z,0.00
2018-04-24T02:09:56.129Z,0.00
2018-04-24T02:10:56.142Z,0.00
2018-04-24T02:11:56.155Z,0.00
2018-04-24T02:12:56.161Z,0.00
2018-04-24T02:13:56.179Z,0.00
2018-04-24T02:14:56.186Z,0.00
2018-04-24T02:15:56.204Z,0.00
2018-04-24T02:16:56.205Z,0.00
2018-04-24T02:17:56.218Z,0.00
2018-04-24T02:18:56.231Z,0.00
2018-04-24T02:19:56.254Z,0.00
2018-04-24T02:20:56.255Z,0.00
2018-04-24T02:21:56.264Z,0.00
2018-04-24T02:22:56.276Z,0.00
2018-04-24T02:23:56.287Z,0.00
2018-04-24T02:24:56.373Z,0.00
2018-04-24T02:25:56.321Z,0.00
2018-04-24T02:26:56.318Z,0.00
2018-04-24T02:27:56.328Z,0.00
2018-04-24T02:28:56.350Z,0.00
2018-04-24T02:29:56.351Z,0.00
2018-04-24T02:30:56.365Z,0.00
2018-04-24T02:31:56.387Z,0.00
2018-04-24T02:32:56.385Z,0.00
2018-04-24T02:33:56.398Z,0.00
2018-04-24T02:34:56.411Z,0.00
2018-04-24T02:35:56.425Z,0.00
2018-04-24T02:36:56.434Z,0.00
2018-04-24T02:37:56.450Z,0.00
2018-04-24T02:38:56.454Z,0.00
2018-04-24T02:39:56.466Z,0.00
2018-04-24T02:40:56.478Z,0.00
2018-04-24T02:41:56.485Z,0.00
2018-04-24T02:42:56.496Z,0.00
2018-04-24T02:43:56.513Z,0.00
2018-04-24T02:44:56.518Z,0.00
2018-04-24T02:45:56.532Z,0.00
2018-04-24T02:46:56.549Z,0.00
2018-04-24T02:47:56.553Z,0.00
2018-04-24T02:48:56.563Z,0.00
2018-04-24T02:49:56.575Z,0.00
2018-04-24T02:50:56.608Z,0.00
2018-04-24T02:51:56.604Z,0.00
2018-04-24T02:52:56.608Z,0.00
2018-04-24T02:53:56.618Z,0.00
2018-04-24T02:54:56.629Z,0.00
2018-04-24T02:55:56.645Z,0.00
2018-04-24T02:56:56.652Z,0.00
2018-04-24T02:57:56.676Z,0.00
2018-04-24T02:58:56.683Z,0.00
2018-04-24T02:59:56.686Z,0.00
2018-04-24T03:00:56.698Z,0.00
2018-04-24T03:01:56.703Z,0.00
2018-04-24T03:02:56.721Z,0.00
2018-04-24T03:03:56.733Z,0.00
2018-04-24T03:04:56.744Z,0.00
2018-04-24T03:05:56.752Z,0.00
2018-04-24T03:06:56.767Z,0.00
2018-04-24T03:07:56.775Z,0.00
2018-04-24T03:08:56.781Z,0.00
2018-04-24T03:09:56.811Z,0.00
2018-04-24T03:10:56.808Z,0.00
2018-04-24T03:11:56.922Z,0.00
2018-04-24T03:12:56.830Z,0.00
2018-04-24T03:13:56.839Z,0.00
2018-04-24T03:14:56.848Z,0.00
2018-04-24T03:15:56.888Z,0.00
2018-04-24T03:16:56.872Z,0.00
2018-04-24T03:17:56.887Z,0.00
2018-04-24T03:18:56.891Z,0.00
2018-04-24T03:19:56.912Z,0.00
2018-04-24T03:20:56.915Z,0.00
2018-04-24T03:21:56.935Z,0.00
2018-04-24T03:22:56.945Z,0.00
2018-04-24T03:23:56.953Z,0.00
2018-04-24T03:24:56.963Z,0.00
2018-04-24T03:25:56.971Z,0.00
2018-04-24T03:26:56.981Z,0.00
2018-04-24T03:27:57.002Z,0.00
2018-04-24T03:28:57.005Z,0.00
2018-04-24T03:29:57.017Z,0.00
2018-04-24T03:30:57.027Z,0.00
2018-04-24T03:31:57.047Z,0.00
2018-04-24T03:32:57.049Z,0.00
2018-04-24T03:33:57.062Z,0.00
2018-04-24T03:34:57.070Z,0.00
2018-04-24T03:35:57.086Z,0.00
2018-04-24T03:36:57.091Z,0.00
2018-04-24T03:37:57.104Z,0.00
2018-04-24T03:38:57.116Z,0.00
2018-04-24T03:39:57.137Z,0.00
2018-04-24T03:40:57.147Z,0.00
2018-04-24T03:41:57.154Z,0.00
2018-04-24T03:42:57.158Z,0.00
2018-04-24T03:43:57.171Z,0.00
2018-04-24T03:44:57.178Z,0.00
2018-04-24T03:45:57.220Z,0.00
2018-04-24T03:46:57.203Z,4.00
2018-04-24T03:47:57.219Z,4.00
2018-04-24T03:48:57.221Z,0.00
2018-04-24T03:49:57.232Z,4.00
2018-04-24T03:50:57.248Z,4.00
2018-04-24T03:51:57.256Z,4.00
2018-04-24T03:52:57.271Z,8.00
2018-04-24T03:53:57.288Z,8.00
2018-04-24T03:54:57.291Z,4.00
2018-04-24T03:55:57.301Z,12.00
2018-04-24T03:56:57.309Z,12.00
2018-04-24T03:57:57.323Z,12.00
2018-04-24T03:58:57.331Z,12.00
2018-04-24T03:59:57.346Z,16.00
2018-04-24T04:00:57.355Z,20.00
2018-04-24T04:01:57.364Z,20.00
2018-04-24T04:02:57.373Z,24.00
2018-04-24T04:03:57.391Z,24.00
2018-04-24T04:04:57.403Z,28.00
2018-04-24T04:05:57.411Z,28.00
2018-04-24T04:06:57.428Z,36.00
2018-04-24T04:07:57.432Z,44.00
2018-04-24T04:08:57.443Z,44.00
2018-04-24T04:09:57.453Z,60.00
2018-04-24T04:10:57.464Z,68.00
2018-04-24T04:11:57.472Z,68.00
2018-04-24T04:12:57.490Z,76.00
2018-04-24T04:13:57.498Z,88.00
2018-04-24T04:14:57.507Z,104.00
2018-04-24T04:15:57.601Z,120.00
2018-04-24T04:16:57.526Z,136.00
2018-04-24T04:17:57.545Z,152.00
2018-04-24T04:18:57.548Z,164.00
2018-04-24T04:19:57.560Z,184.00
2018-04-24T04:20:57.584Z,200.00
2018-04-24T04:21:57.579Z,220.00
2018-04-24T04:22:57.591Z,240.00
2018-04-24T04:23:57.604Z,264.00
2018-04-24T04:24:57.615Z,288.00
2018-04-24T04:25:57.626Z,312.00
2018-04-24T04:26:57.671Z,332.00
2018-04-24T04:27:57.648Z,356.00
2018-04-24T04:28:57.659Z,392.00
2018-04-24T04:29:57.674Z,416.00
2018-04-24T04:30:57.677Z,424.00
2018-04-24T04:31:57.695Z,456.00
2018-04-24T04:32:57.751Z,492.00
2018-04-24T04:33:57.710Z,528.00
2018-04-24T04:34:57.727Z,516.00
2018-04-24T04:35:57.740Z,524.00
2018-04-24T04:36:57.748Z,556.00
2018-04-24T04:37:57.757Z,608.00
2018-04-24T04:38:57.766Z,672.00
2018-04-24T04:39:57.777Z,744.00
2018-04-24T04:40:57.798Z,768.00
2018-04-24T04:41:57.804Z,792.00
2018-04-24T04:42:57.812Z,852.00
2018-04-24T04:43:57.822Z,856.00
2018-04-24T04:44:57.831Z,824.00
2018-04-24T04:45:57.848Z,760.00
2018-04-24T04:46:57.854Z,708.00
2018-04-24T04:47:57.951Z,660.00
2018-04-24T04:48:57.880Z,640.00
2018-04-24T04:49:57.889Z,644.00
2018-04-24T04:50:57.895Z,684.00
2018-04-24T04:51:57.916Z,740.00
2018-04-24T04:52:57.917Z,808.00
2018-04-24T04:53:57.928Z,872.00
2018-04-24T04:54:57.948Z,976.00
2018-04-24T04:55:57.954Z,1144.00
2018-04-24T04:56:57.963Z,1432.00
2018-04-24T04:57:57.974Z,1568.00
2018-04-24T04:58:57.986Z,1508.00
2018-04-24T04:59:57.998Z,1404.00
2018-04-24T05:00:58.016Z,1340.00
2018-04-24T05:01:58.019Z,1384.00
2018-04-24T05:02:58.030Z,1456.00
2018-04-24T05:03:58.040Z,1600.00
2018-04-24T05:04:58.050Z,1608.00
2018-04-24T05:05:58.062Z,1580.00
2018-04-24T05:06:58.081Z,1592.00
2018-04-24T05:07:58.085Z,1540.00
2018-04-24T05:08:58.092Z,1536.00
2018-04-24T05:09:58.103Z,1588.00
2018-04-24T05:10:58.125Z,1624.00
2018-04-24T05:11:58.146Z,1816.00
2018-04-24T05:12:58.154Z,2080.00
2018-04-24T05:13:58.148Z,2316.00
2018-04-24T05:14:58.161Z,2508.00
2018-04-24T05:15:58.177Z,2376.00
2018-04-24T05:16:58.186Z,2176.00
2018-04-24T05:17:58.195Z,2172.00
2018-04-24T05:18:58.204Z,2044.00
2018-04-24T05:19:58.229Z,1948.00
2018-04-24T05:20:58.225Z,2108.00
2018-04-24T05:21:58.241Z,2388.00
2018-04-24T05:22:58.248Z,2408.00
2018-04-24T05:23:58.265Z,2228.00
2018-04-24T05:24:58.272Z,2140.00
2018-04-24T05:25:58.312Z,2240.00
2018-04-24T05:26:58.292Z,2548.00
2018-04-24T05:27:58.303Z,2972.00
2018-04-24T05:28:58.313Z,3108.00
2018-04-24T05:29:58.331Z,2892.00
2018-04-24T05:30:58.338Z,2984.00
2018-04-24T05:31:58.354Z,3040.00
2018-04-24T05:32:58.360Z,2928.00
2018-04-24T05:33:58.371Z,2700.00
2018-04-24T05:34:58.383Z,2684.00
2018-04-24T05:35:58.395Z,2796.00
2018-04-24T05:36:58.402Z,2672.00
2018-04-24T05:37:58.422Z,2512.00
2018-04-24T05:38:58.425Z,2452.00
2018-04-24T05:39:58.437Z,2420.00
2018-04-24T05:40:58.452Z,2556.00
2018-04-24T05:41:58.466Z,2932.00
2018-04-24T05:42:58.470Z,3308.00
2018-04-24T05:43:58.497Z,3340.00
2018-04-24T05:44:58.496Z,3228.00
2018-04-24T05:45:58.504Z,3308.00
2018-04-24T05:46:58.518Z,3536.00
2018-04-24T05:47:58.528Z,3764.00
2018-04-24T05:48:58.536Z,3872.00
2018-04-24T05:49:58.561Z,3720.00
2018-04-24T05:50:58.557Z,3848.00
2018-04-24T05:51:58.570Z,4112.00
2018-04-24T05:52:58.603Z,4128.00
2018-04-24T05:53:58.593Z,4372.00
2018-04-24T05:54:58.605Z,4600.00
2018-04-24T05:55:58.614Z,4268.00
2018-04-24T05:56:58.632Z,4168.00
2018-04-24T05:57:58.641Z,3448.00
2018-04-24T05:58:58.652Z,3564.00
2018-04-24T05:59:58.668Z,3520.00
2018-04-24T06:00:58.670Z,3252.00
2018-04-24T06:01:58.685Z,3148.00
2018-04-24T06:02:58.719Z,3216.00
2018-04-24T06:03:58.702Z,3492.00
2018-04-24T06:04:58.715Z,3664.00
2018-04-24T06:05:58.725Z,4008.00
2018-04-24T06:06:58.737Z,4228.00
2018-04-24T06:07:58.748Z,4108.00
2018-04-24T06:08:58.759Z,4424.00
2018-04-24T06:09:58.778Z,4240.00
2018-04-24T06:10:58.791Z,3972.00
2018-04-24T06:11:58.792Z,4456.00
2018-04-24T06:12:58.803Z,4608.00
2018-04-24T06:13:58.820Z,4308.00
2018-04-24T06:14:58.889Z,4376.00
2018-04-24T06:15:58.837Z,3716.00
2018-04-24T06:16:58.857Z,3728.00
2018-04-24T06:17:58.870Z,3884.00
2018-04-24T06:18:58.875Z,3880.00
2018-04-24T06:19:58.884Z,3708.00
2018-04-24T06:20:58.892Z,3768.00
2018-04-24T06:21:58.907Z,4300.00
2018-04-24T06:22:58.920Z,5084.00
2018-04-24T06:23:58.927Z,5240.00
2018-04-24T06:24:58.941Z,5612.00
2018-04-24T06:25:58.950Z,6292.00
2018-04-24T06:26:58.963Z,6808.00
2018-04-24T06:27:58.995Z,6232.00
2018-04-24T06:28:58.985Z,5968.00
2018-04-24T06:29:58.994Z,5840.00
2018-04-24T06:30:59.014Z,5300.00
2018-04-24T06:31:59.019Z,5548.00
2018-04-24T06:32:59.028Z,6372.00
2018-04-24T06:33:59.051Z,7816.00
2018-04-24T06:34:59.053Z,7544.00
2018-04-24T06:35:59.100Z,7436.00
2018-04-24T06:36:59.078Z,7356.00
2018-04-24T06:37:59.090Z,7768.00
2018-04-24T06:38:59.098Z,7340.00
2018-04-24T06:39:59.114Z,6756.00
2018-04-24T06:40:59.123Z,7640.00
2018-04-24T06:41:59.133Z,8716.00
2018-04-24T06:42:59.149Z,9680.00
2018-04-24T06:43:59.155Z,8240.00
2018-04-24T06:44:59.167Z,6328.00
2018-04-24T06:45:59.182Z,4780.00
2018-04-24T06:46:59.199Z,5164.00
2018-04-24T06:47:59.204Z,4976.00
2018-04-24T06:48:59.238Z,3728.00
2018-04-24T06:49:59.226Z,3104.00
2018-04-24T06:50:59.239Z,3428.00
2018-04-24T06:51:59.247Z,4020.00
2018-04-24T06:52:59.266Z,4640.00
2018-04-24T06:53:59.278Z,5812.00
2018-04-24T06:54:59.371Z,6540.00
2018-04-24T06:55:59.296Z,4960.00
2018-04-24T06:56:59.308Z,4464.00
2018-04-24T06:57:59.320Z,4384.00
2018-04-24T06:58:59.337Z,4508.00
2018-04-24T06:59:59.343Z,4572.00
2018-04-24T07:00:59.358Z,4432.00
2018-04-24T07:01:59.366Z,4432.00
2018-04-24T07:02:59.384Z,4656.00
2018-04-24T07:03:59.390Z,4944.00
2018-04-24T07:04:59.404Z,4716.00
2018-04-24T07:05:59.415Z,5160.00
2018-04-24T07:06:59.462Z,4992.00
2018-04-24T07:07:59.437Z,5000.00
2018-04-24T07:08:59.450Z,5124.00
2018-04-24T07:09:59.458Z,5152.00
2018-04-24T07:10:59.475Z,5192.00
2018-04-24T07:11:59.486Z,5364.00
2018-04-24T07:12:59.494Z,5488.00
2018-04-24T07:13:59.511Z,5480.00
2018-04-24T07:14:59.516Z,5408.00
2018-04-24T07:15:59.538Z,5104.00
2018-04-24T07:16:59.539Z,5276.00
2018-04-24T07:17:59.570Z,5532.00
2018-04-24T07:18:59.565Z,5352.00
2018-04-24T07:19:59.575Z,5016.00
2018-04-24T07:20:59.587Z,4532.00
2018-04-24T07:21:59.609Z,4532.00
2018-04-24T07:22:59.615Z,4936.00
2018-04-24T07:23:59.622Z,5196.00
2018-04-24T07:24:59.632Z,5460.00
2018-04-24T07:25:59.644Z,5096.00
2018-04-24T07:26:59.658Z,4664.00
2018-04-24T07:27:59.668Z,4684.00
2018-04-24T07:28:59.679Z,4800.00
2018-04-24T07:29:59.691Z,4864.00
2018-04-24T07:30:59.715Z,5080.00
2018-04-24T07:31:59.715Z,5260.00
2018-04-24T07:32:59.744Z,5344.00
2018-04-24T07:33:59.749Z,5572.00
2018-04-24T07:34:59.751Z,4928.00
2018-04-24T07:35:59.764Z,4700.00
2018-04-24T07:36:59.774Z,4788.00
2018-04-24T07:37:59.788Z,4868.00
2018-04-24T07:38:59.797Z,4804.00
2018-04-24T07:39:59.809Z,5020.00
2018-04-24T07:40:59.868Z,5420.00
2018-04-24T07:41:59.839Z,5324.00
2018-04-24T07:42:59.850Z,5392.00
2018-04-24T07:43:59.856Z,5716.00
2018-04-24T07:44:59.866Z,5344.00
2018-04-24T07:45:59.878Z,5428.00
2018-04-24T07:46:59.893Z,5344.00
2018-04-24T07:47:59.916Z,5680.00
2018-04-24T07:48:59.914Z,5540.00
2018-04-24T07:49:59.925Z,5472.00
2018-04-24T07:50:59.938Z,6276.00
2018-04-24T07:51:59.948Z,7024.00
2018-04-24T07:52:59.958Z,6748.00
2018-04-24T07:53:59.976Z,6184.00
2018-04-24T07:54:59.984Z,7216.00
2018-04-24T07:56:00.018Z,6612.00
2018-04-24T07:57:00.011Z,6816.00
2018-04-24T07:58:00.019Z,8208.00
2018-04-24T07:59:00.033Z,6240.00
2018-04-24T08:00:00.051Z,6128.00
2018-04-24T08:01:00.055Z,6620.00
2018-04-24T08:02:00.073Z,5304.00
2018-04-24T08:03:00.082Z,5468.00
2018-04-24T08:04:00.089Z,5224.00
2018-04-24T08:05:00.104Z,6520.00
2018-04-24T08:06:00.118Z,7228.00
2018-04-24T08:07:00.132Z,8252.00
2018-04-24T08:08:00.155Z,7532.00
2018-04-24T08:09:00.172Z,6452.00
2018-04-24T08:10:00.170Z,6668.00
2018-04-24T08:11:00.182Z,7660.00
2018-04-24T08:12:00.190Z,7388.00
2018-04-24T08:13:00.201Z,7832.00
2018-04-24T08:14:00.221Z,8004.00
2018-04-24T08:15:00.228Z,9424.00
2018-04-24T08:16:00.239Z,9512.00
2018-04-24T08:17:00.249Z,8044.00
2018-04-24T08:18:00.259Z,8268.00
2018-04-24T08:19:00.275Z,8096.00
2018-04-24T08:20:00.287Z,7188.00
2018-04-24T08:21:00.297Z,6508.00
2018-04-24T08:22:00.346Z,5584.00
2018-04-24T08:23:00.323Z,6032.00
2018-04-24T08:24:00.344Z,7024.00
2018-04-24T08:25:00.351Z,7884.00
2018-04-24T08:26:00.374Z,8764.00
2018-04-24T08:27:00.371Z,7796.00
2018-04-24T08:28:00.384Z,7508.00
2018-04-24T08:29:00.403Z,7048.00
2018-04-24T08:30:00.417Z,6264.00
2018-04-24T08:31:00.439Z,7404.00
2018-04-24T08:32:00.436Z,9284.00
2018-04-24T08:33:00.456Z,10364.00
2018-04-24T08:34:00.458Z,9576.00
2018-04-24T08:35:00.511Z,10428.00
2018-04-24T08:36:00.515Z,9508.00
2018-04-24T08:37:00.497Z,7976.00
2018-04-24T08:38:00.506Z,6080.00
2018-04-24T08:39:00.608Z,5808.00
2018-04-24T08:40:00.590Z,6212.00
2018-04-24T08:41:00.550Z,6788.00
2018-04-24T08:42:00.563Z,3824.00
2018-04-24T08:43:00.582Z,6508.00
2018-04-24T08:44:00.584Z,6192.00
2018-04-24T08:45:00.595Z,5608.00
2018-04-24T08:46:00.610Z,6072.00
2018-04-24T08:47:00.626Z,6760.00
2018-04-24T08:48:00.749Z,6256.00
2018-04-24T08:49:00.649Z,7236.00
2018-04-24T08:50:00.660Z,8924.00
2018-04-24T08:51:00.674Z,10272.00
2018-04-24T08:52:00.691Z,10872.00
2018-04-24T08:53:00.698Z,10772.00
2018-04-24T08:54:00.718Z,10024.00
2018-04-24T08:55:00.727Z,10180.00
2018-04-24T08:56:00.740Z,9564.00
2018-04-24T08:57:00.755Z,8928.00
2018-04-24T08:58:00.759Z,7724.00
2018-04-24T08:59:00.776Z,6932.00
2018-04-24T09:00:00.790Z,7168.00
2018-04-24T09:01:00.799Z,8032.00
2018-04-24T09:02:00.868Z,9640.00
2018-04-24T09:03:00.825Z,9284.00
2018-04-24T09:04:00.840Z,10200.00
2018-04-24T09:05:00.866Z,10972.00
2018-04-24T09:06:00.867Z,12184.00
2018-04-24T09:07:00.878Z,14932.00
2018-04-24T09:08:00.891Z,13080.00
2018-04-24T09:09:00.918Z,12708.00
2018-04-24T09:10:00.968Z,11624.00
2018-04-24T09:11:00.936Z,10580.00
2018-04-24T09:12:00.943Z,9216.00
2018-04-24T09:13:00.962Z,9588.00
2018-04-24T09:14:01.044Z,9440.00
2018-04-24T09:15:00.986Z,8828.00
2018-04-24T09:16:01.028Z,9400.00
2018-04-24T09:17:01.021Z,8240.00
2018-04-24T09:18:01.026Z,7936.00
2018-04-24T09:19:01.041Z,7516.00
2018-04-24T09:20:01.084Z,7784.00
2018-04-24T09:21:01.065Z,7584.00
2018-04-24T09:22:01.081Z,8572.00
2018-04-24T09:23:01.094Z,10180.00
2018-04-24T09:24:01.139Z,11284.00
2018-04-24T09:25:01.118Z,8668.00
2018-04-24T09:26:01.130Z,7832.00
2018-04-24T09:27:01.239Z,7384.00
2018-04-24T09:28:01.160Z,8352.00
2018-04-24T09:29:01.177Z,8496.00
2018-04-24T09:30:01.183Z,7316.00
2018-04-24T09:31:01.227Z,5936.00
2018-04-24T09:32:01.209Z,5944.00
2018-04-24T09:33:01.250Z,6396.00
2018-04-24T09:34:01.238Z,7204.00
2018-04-24T09:35:01.822Z,7268.00
2018-04-24T09:36:01.265Z,6516.00
2018-04-24T09:37:01.296Z,7560.00
2018-04-24T09:38:01.295Z,7568.00
2018-04-24T09:39:01.310Z,7572.00
2018-04-24T09:40:01.315Z,7832.00
2018-04-24T09:41:01.345Z,7828.00
2018-04-24T09:42:01.344Z,8300.00
2018-04-24T09:43:01.355Z,8608.00
2018-04-24T09:44:01.447Z,8320.00
2018-04-24T09:45:01.383Z,8052.00
2018-04-24T09:46:01.453Z,8284.00
2018-04-24T09:47:01.412Z,9108.00
2018-04-24T09:48:01.429Z,8344.00
2018-04-24T09:49:01.567Z,7916.00
2018-04-24T09:50:01.450Z,8724.00
2018-04-24T09:51:01.469Z,9132.00
2018-04-24T09:52:01.498Z,8964.00
2018-04-24T09:53:01.519Z,8636.00
2018-04-24T09:54:01.500Z,8632.00
2018-04-24T09:55:01.515Z,8816.00
2018-04-24T09:56:01.526Z,9896.00
2018-04-24T09:57:01.542Z,11128.00
2018-04-24T09:58:01.556Z,12736.00
2018-04-24T09:59:01.566Z,13620.00
2018-04-24T10:00:01.584Z,14792.00
2018-04-24T10:01:01.610Z,14856.00
2018-04-24T10:02:01.614Z,14872.00
2018-04-24T10:03:01.651Z,15648.00
2018-04-24T10:04:01.634Z,14888.00
2018-04-24T10:05:01.663Z,11404.00
2018-04-24T10:06:01.658Z,10528.00
2018-04-24T10:07:01.675Z,12336.00
2018-04-24T10:08:01.692Z,12684.00
2018-04-24T10:09:01.700Z,12796.00
2018-04-24T10:10:01.728Z,13240.00
2018-04-24T10:11:01.728Z,13652.00
2018-04-24T10:12:01.751Z,15412.00
2018-04-24T10:13:01.854Z,17056.00
2018-04-24T10:14:01.834Z,15260.00
2018-04-24T10:15:01.788Z,13420.00
2018-04-24T10:16:01.801Z,13864.00
2018-04-24T10:17:01.826Z,14556.00
2018-04-24T10:18:01.840Z,11444.00
2018-04-24T10:19:01.838Z,10628.00
2018-04-24T10:20:01.854Z,11984.00
2018-04-24T10:21:01.871Z,10224.00
2018-04-24T10:22:01.883Z,8508.00
2018-04-24T10:23:01.897Z,8896.00
2018-04-24T10:24:01.914Z,10196.00
2018-04-24T10:25:01.955Z,10004.00
2018-04-24T10:26:01.942Z,9888.00
2018-04-24T10:27:01.953Z,10160.00
2018-04-24T10:28:01.973Z,11076.00
2018-04-24T10:29:01.981Z,10712.00
2018-04-24T10:30:01.995Z,10812.00
2018-04-24T10:31:02.020Z,12028.00
2018-04-24T10:32:02.027Z,13016.00
2018-04-24T10:33:02.040Z,12408.00
2018-04-24T10:34:02.052Z,11920.00
2018-04-24T10:35:02.070Z,13956.00
2018-04-24T10:36:02.083Z,12852.00
2018-04-24T10:37:02.105Z,13948.00
2018-04-24T10:38:02.109Z,14660.00
2018-04-24T10:39:02.124Z,16608.00
2018-04-24T10:40:02.137Z,14476.00
2018-04-24T10:41:02.154Z,14428.00
2018-04-24T10:42:02.178Z,14964.00
2018-04-24T10:43:02.186Z,15508.00
2018-04-24T10:44:02.197Z,14040.00
2018-04-24T10:45:02.212Z,14152.00
2018-04-24T10:46:02.224Z,13500.00
2018-04-24T10:47:02.238Z,10960.00
2018-04-24T10:48:02.287Z,10000.00
2018-04-24T10:49:02.277Z,12228.00
2018-04-24T10:50:02.283Z,14452.00
2018-04-24T10:51:02.298Z,15488.00
2018-04-24T10:52:02.310Z,13960.00
2018-04-24T10:53:02.327Z,17056.00
2018-04-24T10:54:02.341Z,15220.00
2018-04-24T10:55:02.371Z,12276.00
2018-04-24T10:56:02.441Z,12004.00
2018-04-24T10:57:02.383Z,11976.00
2018-04-24T10:58:02.397Z,16248.00
2018-04-24T10:59:02.412Z,18080.00
2018-04-24T11:00:02.430Z,15936.00
2018-04-24T11:01:02.446Z,11828.00
2018-04-24T11:02:02.465Z,14184.00
2018-04-24T11:03:02.472Z,18112.00
2018-04-24T11:04:02.492Z,20544.00
2018-04-24T11:05:02.500Z,18720.00
2018-04-24T11:06:02.515Z,22432.00
2018-04-24T11:07:02.533Z,60000.00
2018-04-24T11:08:02.561Z,95712.00
2018-04-24T11:09:02.572Z,98752.00
2018-04-24T11:10:02.575Z,105216.00
2018-04-24T11:11:02.588Z,19904.00
2018-04-24T11:12:02.606Z,106816.00
2018-04-24T11:13:02.628Z,104000.00
2018-04-24T11:14:02.645Z,90976.00
2018-04-24T11:15:02.657Z,23392.00
2018-04-24T11:16:02.671Z,68576.00
2018-04-24T11:17:02.729Z,104928.00
2018-04-24T11:18:02.713Z,85504.00
2018-04-24T11:19:02.725Z,106784.00
2018-04-24T11:20:02.756Z,103232.00
2018-04-24T11:21:02.760Z,103488.00
2018-04-24T11:22:02.779Z,23008.00
2018-04-24T11:23:02.799Z,106336.00
2018-04-24T11:24:02.818Z,107040.00
2018-04-24T11:25:02.833Z,117056.00
2018-04-24T11:26:02.878Z,22048.00
2018-04-24T11:27:02.871Z,117152.00
2018-04-24T11:28:02.900Z,115520.00
2018-04-24T11:29:02.916Z,29824.00
2018-04-24T11:30:02.943Z,113856.00
2018-04-24T11:31:02.957Z,111712.00
2018-04-24T11:32:02.973Z,99328.00
2018-04-24T11:33:02.996Z,102656.00
2018-04-24T11:34:03.020Z,102304.00
2018-04-24T11:35:03.038Z,95680.00
2018-04-24T11:36:03.088Z,86720.00
2018-04-24T11:37:03.078Z,81312.00
2018-04-24T11:38:03.100Z,76704.00
2018-04-24T11:39:03.154Z,90208.00
2018-04-24T11:40:03.141Z,95552.00
2018-04-24T11:41:03.161Z,97216.00
2018-04-24T11:42:03.191Z,97472.00
2018-04-24T11:43:03.217Z,94080.00
2018-04-24T11:44:03.253Z,88320.00
2018-04-24T11:45:03.265Z,94496.00
2018-04-24T11:46:03.295Z,97888.00
2018-04-24T11:47:03.296Z,68640.00
2018-04-24T11:48:03.317Z,68416.00
2018-04-24T11:49:03.347Z,71040.00
2018-04-24T11:50:03.361Z,96960.00
2018-04-24T11:51:03.390Z,102080.00
2018-04-24T11:52:03.409Z,103264.00
2018-04-24T11:53:03.431Z,92224.00
2018-04-24T11:54:03.453Z,104160.00
2018-04-24T11:55:03.472Z,108064.00
2018-04-24T11:56:03.497Z,112448.00
2018-04-24T11:57:03.588Z,30272.00
2018-04-24T11:58:03.539Z,89792.00
2018-04-24T11:59:03.639Z,102784.00
2018-04-24T12:00:03.589Z,104896.00
2018-04-24T12:01:03.609Z,108288.00
2018-04-24T12:02:03.655Z,111680.00
2018-04-24T12:03:03.662Z,105664.00
2018-04-24T12:04:03.684Z,98752.00
2018-04-24T12:05:03.701Z,94880.00
2018-04-24T12:06:03.730Z,100256.00
2018-04-24T12:07:03.749Z,96448.00
2018-04-24T12:08:03.776Z,99488.00
2018-04-24T12:09:03.800Z,38368.00
2018-04-24T12:10:03.840Z,73504.00
2018-04-24T12:11:03.847Z,91200.00
2018-04-24T12:12:03.871Z,15804.00
2018-04-24T12:13:03.903Z,13800.00
2018-04-24T12:14:03.923Z,15516.00
2018-04-24T12:15:03.941Z,92704.00
2018-04-24T12:16:03.967Z,108512.00
2018-04-24T12:17:03.988Z,99648.00
2018-04-24T12:18:04.011Z,72320.00
2018-04-24T12:19:04.033Z,15372.00
2018-04-24T12:20:04.066Z,16004.00
2018-04-24T12:21:04.080Z,106624.00
2018-04-24T12:22:04.105Z,28256.00
2018-04-24T12:23:04.125Z,112928.00
2018-04-24T12:24:04.149Z,19200.00